Terminal Aerodrome Forecast
Issued by NWS Nashville, TN

Home | Current Version | Previous Version | Text Only | Print | Product List | Glossary On
Versions: 1 2 3 4 5 6 7 8 9 10 11 12 13 14 15
360
FTUS44 KOHX 261002 AAA
TAFBNA
TAF AMD
KBNA 261002Z 2610/2706 30003KT P6SM BKN100
     FM261200 34012G20KT P6SM VCSH BKN015 OVC050
     FM261400 35008KT P6SM VCSH SCT025 OVC050
     FM262000 36007KT P6SM SCT050 BKN090=

USA.gov is the U.S. government's official web portal to all federal, state and local government web resources and services.